Time;durP1;ratioP1;P1;durP2;ratioP2;P2;SDS_P1;SDS_P2;PMS_P1;PMS_P2;Temp;Humidity;BMP_temperature;BMP_pressure;BME280_temperature;BME280_humidity;BME280_pressure;Samples;Min_cycle;Max_cycle;Signal;HPM_P1;HPM_P2
2023/08/03 00:01:56;;;;;;;1.73;0.30;;;;;;;;;;5073704;28;20427;-85
2023/08/03 00:04:22;;;;;;;4.40;0.20;;;;;;;;;;5075181;28;20422;-85
2023/08/03 00:06:48;;;;;;;3.17;0.77;;;;;;;;;;5073908;28;20179;-85
2023/08/03 00:09:14;;;;;;;2.10;0.40;;;;;;;;;;5075141;28;20175;-84
2023/08/03 00:11:40;;;;;;;2.67;0.40;;;;;;;;;;5074529;28;20526;-85
2023/08/03 00:14:06;;;;;;;2.10;0.63;;;;;;;;;;5075046;28;20411;-86
2023/08/03 00:16:32;;;;;;;2.43;0.20;;;;;;;;;;5074940;28;20176;-85
2023/08/03 00:18:58;;;;;;;2.13;0.23;;;;;;;;;;5074861;28;20404;-85
2023/08/03 00:21:24;;;;;;;1.93;0.30;;;;;;;;;;5074978;28;20460;-85
2023/08/03 00:23:49;;;;;;;1.13;0.33;;;;;;;;;;5073547;28;20431;-85
2023/08/03 00:26:15;;;;;;;1.97;0.43;;;;;;;;;;5073085;28;20257;-85
2023/08/03 00:28:42;;;;;;;1.63;0.30;;;;;;;;;;5074679;28;20752;-85
2023/08/03 00:31:08;;;;;;;0.93;0.30;;;;;;;;;;5074551;28;20215;-84
2023/08/03 00:33:34;;;;;;;4.20;0.53;;;;;;;;;;5073333;28;20420;-84
2023/08/03 00:36:00;;;;;;;3.47;0.33;;;;;;;;;;5073697;28;20674;-85
2023/08/03 00:38:26;;;;;;;2.47;0.50;;;;;;;;;;5073028;28;20470;-84
2023/08/03 00:40:52;;;;;;;5.07;0.67;;;;;;;;;;5074024;28;20414;-85
2023/08/03 00:43:18;;;;;;;4.57;0.50;;;;;;;;;;5072956;28;20764;-84
2023/08/03 00:45:44;;;;;;;2.20;1.00;;;;;;;;;;5072447;28;20430;-87
2023/08/03 00:48:10;;;;;;;2.80;0.60;;;;;;;;;;5074330;28;20446;-86
2023/08/03 00:50:37;;;;;;;2.97;0.63;;;;;;;;;;5084225;28;20458;-87
2023/08/03 00:53:03;;;;;;;2.47;0.37;;;;;;;;;;5094676;28;20751;-88
2023/08/03 00:55:29;;;;;;;4.40;0.57;;;;;;;;;;5093024;28;20407;-88
2023/08/03 00:57:55;;;;;;;1.53;0.77;;;;;;;;;;5094570;28;20422;-88
2023/08/03 01:00:21;;;;;;;2.20;0.40;;;;;;;;;;5094818;28;20421;-87
2023/08/03 01:02:46;;;;;;;2.30;0.53;;;;;;;;;;5095072;28;20180;-87
2023/08/03 01:05:15;;;;;;;2.50;0.53;;;;;;;;;;5094721;28;20482;-87
2023/08/03 01:07:41;;;;;;;3.10;0.87;;;;;;;;;;5094611;28;20761;-86
2023/08/03 01:10:07;;;;;;;4.17;0.80;;;;;;;;;;5093977;28;20458;-86
2023/08/03 01:12:33;;;;;;;2.40;0.40;;;;;;;;;;5093156;28;20432;-87
2023/08/03 01:14:59;;;;;;;4.77;0.40;;;;;;;;;;5094390;28;20408;-89
2023/08/03 01:17:25;;;;;;;2.87;0.50;;;;;;;;;;5086627;28;20476;-88
2023/08/03 01:19:55;;;;;;;1.53;0.80;;;;;;;;;;5074043;28;20421;-87
2023/08/03 01:22:21;;;;;;;2.53;0.67;;;;;;;;;;5073875;28;20415;-87
2023/08/03 01:24:47;;;;;;;2.40;0.53;;;;;;;;;;5072030;28;20415;-87
2023/08/03 01:27:13;;;;;;;5.20;0.80;;;;;;;;;;5073755;28;20514;-85
2023/08/03 01:29:39;;;;;;;2.43;0.87;;;;;;;;;;5073654;28;20415;-87
2023/08/03 01:32:05;;;;;;;2.10;0.70;;;;;;;;;;5072419;28;20634;-88
2023/08/03 01:34:32;;;;;;;3.53;0.80;;;;;;;;;;5072273;28;20202;-87
2023/08/03 01:36:58;;;;;;;0.90;0.30;;;;;;;;;;5072468;28;20417;-87
2023/08/03 01:39:26;;;;;;;2.90;0.80;;;;;;;;;;5073235;28;20499;-88
2023/08/03 01:42:01;;;;;;;2.70;0.73;;;;;;;;;;5073344;28;20415;-87
2023/08/03 01:44:30;;;;;;;1.40;0.70;;;;;;;;;;5073419;28;20414;-87
2023/08/03 01:46:57;;;;;;;2.60;0.40;;;;;;;;;;5073433;28;20419;-88
2023/08/03 01:49:24;;;;;;;6.53;0.90;;;;;;;;;;5073384;28;20496;-87
2023/08/03 01:51:50;;;;;;;3.03;0.80;;;;;;;;;;5073374;28;20957;-87
2023/08/03 01:54:16;;;;;;;1.30;0.50;;;;;;;;;;5073295;28;20434;-86
2023/08/03 01:56:42;;;;;;;3.80;1.30;;;;;;;;;;5072092;28;20453;-85
2023/08/03 01:59:08;;;;;;;2.10;0.70;;;;;;;;;;5071967;28;20445;-86
2023/08/03 02:01:37;;;;;;;3.93;0.50;;;;;;;;;;5071927;28;20479;-88
2023/08/03 02:04:07;;;;;;;3.20;0.67;;;;;;;;;;5073150;28;20415;-88
2023/08/03 02:06:33;;;;;;;3.53;0.73;;;;;;;;;;5073204;28;20768;-86
2023/08/03 02:08:59;;;;;;;3.30;1.03;;;;;;;;;;5073128;28;20415;-88
2023/08/03 02:11:26;;;;;;;3.67;1.33;;;;;;;;;;5072720;28;20477;-86
2023/08/03 02:13:51;;;;;;;4.17;0.93;;;;;;;;;;5072871;28;20415;-86
2023/08/03 02:16:17;;;;;;;5.93;1.17;;;;;;;;;;5071689;28;20512;-85
2023/08/03 02:18:43;;;;;;;6.07;0.83;;;;;;;;;;5072734;28;20649;-86
2023/08/03 02:21:09;;;;;;;4.37;1.00;;;;;;;;;;5072888;28;20418;-86
2023/08/03 02:23:35;;;;;;;3.17;0.67;;;;;;;;;;5072939;28;20489;-83
2023/08/03 02:26:04;;;;;;;3.40;0.67;;;;;;;;;;5081450;28;20834;-84
2023/08/03 02:28:30;;;;;;;3.20;0.70;;;;;;;;;;5080998;28;20212;-84
2023/08/03 02:30:57;;;;;;;1.47;0.60;;;;;;;;;;5083222;28;20480;-84
2023/08/03 02:33:22;;;;;;;3.07;0.70;;;;;;;;;;5082568;28;20405;-84
2023/08/03 02:35:48;;;;;;;4.87;0.87;;;;;;;;;;5080189;28;20575;-84
2023/08/03 02:38:14;;;;;;;5.30;0.20;;;;;;;;;;5083440;28;20618;-85
2023/08/03 02:40:40;;;;;;;3.50;0.60;;;;;;;;;;5082054;28;20184;-83
2023/08/03 02:43:06;;;;;;;3.30;0.60;;;;;;;;;;5082664;28;20519;-84
2023/08/03 02:45:32;;;;;;;3.07;0.43;;;;;;;;;;5079343;28;20421;-84
2023/08/03 02:47:58;;;;;;;3.07;0.40;;;;;;;;;;5081470;28;20467;-85
2023/08/03 02:50:24;;;;;;;3.40;0.47;;;;;;;;;;5082503;28;20257;-84
2023/08/03 02:52:50;;;;;;;4.77;1.13;;;;;;;;;;5079931;28;20332;-83
2023/08/03 02:55:16;;;;;;;4.93;0.63;;;;;;;;;;5082611;28;20958;-84
2023/08/03 02:57:43;;;;;;;2.90;0.97;;;;;;;;;;5080954;28;20439;-86
2023/08/03 03:00:09;;;;;;;3.80;0.67;;;;;;;;;;5081320;28;20455;-85
2023/08/03 03:02:36;;;;;;;3.40;0.67;;;;;;;;;;5081249;28;20420;-84
2023/08/03 03:05:01;;;;;;;2.63;0.50;;;;;;;;;;5082291;28;20424;-84
2023/08/03 03:07:27;;;;;;;0.80;0.30;;;;;;;;;;5081338;28;20411;-83
2023/08/03 03:09:53;;;;;;;3.67;0.70;;;;;;;;;;5086421;28;20756;-84
2023/08/03 03:12:19;;;;;;;4.27;0.97;;;;;;;;;;5085562;28;20927;-85
2023/08/03 03:14:45;;;;;;;2.83;0.43;;;;;;;;;;5076286;28;20436;-85
2023/08/03 03:17:11;;;;;;;2.90;0.87;;;;;;;;;;5076328;28;20204;-84
2023/08/03 03:19:37;;;;;;;2.20;0.47;;;;;;;;;;5076239;28;20260;-84
2023/08/03 03:22:03;;;;;;;4.73;0.60;;;;;;;;;;5076171;28;20421;-83
2023/08/03 03:24:29;;;;;;;2.30;0.43;;;;;;;;;;5074449;28;20434;-85
2023/08/03 03:26:55;;;;;;;2.93;0.50;;;;;;;;;;5076046;28;20416;-85
2023/08/03 03:29:21;;;;;;;1.67;0.20;;;;;;;;;;5076110;28;20171;-83
2023/08/03 03:31:46;;;;;;;2.47;1.00;;;;;;;;;;5075947;28;20496;-86
2023/08/03 03:34:12;;;;;;;3.13;0.20;;;;;;;;;;5075953;28;20405;-83
2023/08/03 03:36:38;;;;;;;1.93;0.40;;;;;;;;;;5075981;28;20185;-86
2023/08/03 03:39:05;;;;;;;1.03;0.30;;;;;;;;;;5075448;28;20407;-83
2023/08/03 03:41:31;;;;;;;6.83;0.40;;;;;;;;;;5075849;28;20170;-83
2023/08/03 03:43:57;;;;;;;2.00;0.40;;;;;;;;;;5075652;28;20456;-84
2023/08/03 03:46:23;;;;;;;3.60;0.60;;;;;;;;;;5075765;28;20531;-86
2023/08/03 03:48:49;;;;;;;2.67;0.53;;;;;;;;;;5075548;28;20416;-83
2023/08/03 03:51:17;;;;;;;4.50;0.40;;;;;;;;;;5074273;28;20209;-83
2023/08/03 03:53:43;;;;;;;5.53;0.90;;;;;;;;;;5074526;28;20166;-84
2023/08/03 03:56:09;;;;;;;5.73;1.00;;;;;;;;;;5073977;28;20767;-82
2023/08/03 03:58:35;;;;;;;2.20;0.60;;;;;;;;;;5074256;28;20972;-86
2023/08/03 04:01:01;;;;;;;2.30;0.30;;;;;;;;;;5075493;28;20454;-83
2023/08/03 04:03:27;;;;;;;2.53;1.00;;;;;;;;;;5083105;28;20175;-84
2023/08/03 04:05:53;;;;;;;4.70;0.80;;;;;;;;;;5079530;28;20834;-84
2023/08/03 04:08:19;;;;;;;1.87;0.30;;;;;;;;;;5075741;28;20437;-85
2023/08/03 04:10:45;;;;;;;3.83;0.70;;;;;;;;;;5075224;28;20489;-88
2023/08/03 04:13:11;;;;;;;7.87;0.57;;;;;;;;;;5075394;28;20257;-85
2023/08/03 04:15:37;;;;;;;3.27;0.53;;;;;;;;;;5075171;28;20405;-84
2023/08/03 04:18:03;;;;;;;3.80;0.60;;;;;;;;;;5075217;28;20687;-84
2023/08/03 04:20:29;;;;;;;2.53;0.77;;;;;;;;;;5074095;28;20228;-83
2023/08/03 04:22:55;;;;;;;5.57;0.50;;;;;;;;;;5075078;28;20229;-85
2023/08/03 04:25:21;;;;;;;3.07;0.80;;;;;;;;;;5074769;28;20508;-82
2023/08/03 04:27:46;;;;;;;4.80;0.70;;;;;;;;;;5074958;28;20182;-88
2023/08/03 04:30:13;;;;;;;2.50;0.40;;;;;;;;;;5074879;28;20916;-85
2023/08/03 04:32:39;;;;;;;2.90;0.30;;;;;;;;;;5074915;28;20971;-83
2023/08/03 04:35:05;;;;;;;5.73;0.40;;;;;;;;;;5074750;28;20414;-87
2023/08/03 04:37:31;;;;;;;7.10;0.93;;;;;;;;;;5075044;28;20485;-85
2023/08/03 04:39:57;;;;;;;1.80;0.50;;;;;;;;;;5074388;28;20444;-83
2023/08/03 04:42:23;;;;;;;2.93;0.40;;;;;;;;;;5074467;28;20457;-80
2023/08/03 04:44:49;;;;;;;2.55;0.40;;;;;;;;;;5074266;28;20480;-83
2023/08/03 04:47:15;;;;;;;5.17;0.40;;;;;;;;;;5073304;28;20183;-82
2023/08/03 04:49:41;;;;;;;3.33;0.97;;;;;;;;;;5074572;28;20418;-84
2023/08/03 04:52:07;;;;;;;2.57;0.40;;;;;;;;;;5073163;28;20809;-85
2023/08/03 04:54:33;;;;;;;2.40;0.27;;;;;;;;;;5074117;28;20402;-86
2023/08/03 04:56:59;;;;;;;2.27;0.30;;;;;;;;;;5074470;28;20911;-86
2023/08/03 04:59:25;;;;;;;2.00;0.47;;;;;;;;;;5074395;28;20172;-86
2023/08/03 05:01:51;;;;;;;2.40;0.30;;;;;;;;;;5074338;28;20529;-84
2023/08/03 05:04:17;;;;;;;3.13;0.87;;;;;;;;;;5074282;28;20172;-83
2023/08/03 05:06:43;;;;;;;6.83;0.23;;;;;;;;;;5074158;28;20175;-86
2023/08/03 05:09:09;;;;;;;4.43;0.40;;;;;;;;;;5073843;28;20414;-86
2023/08/03 05:11:35;;;;;;;2.90;0.20;;;;;;;;;;5082187;28;20522;-85
2023/08/03 05:14:00;;;;;;;3.30;0.20;;;;;;;;;;5094314;28;20670;-84
2023/08/03 05:16:27;;;;;;;1.77;0.43;;;;;;;;;;5093020;28;20412;-85
2023/08/03 05:18:53;;;;;;;3.40;0.50;;;;;;;;;;5094322;28;20201;-85
2023/08/03 05:21:19;;;;;;;4.10;0.67;;;;;;;;;;5094080;28;20993;-85
2023/08/03 05:23:46;;;;;;;2.53;0.30;;;;;;;;;;5092485;28;20412;-85
2023/08/03 05:26:12;;;;;;;4.63;0.20;;;;;;;;;;5094064;28;20504;-83
2023/08/03 05:28:38;;;;;;;2.40;0.50;;;;;;;;;;5093796;28;20899;-83
2023/08/03 05:31:05;;;;;;;2.03;0.30;;;;;;;;;;5093703;28;20468;-85
2023/08/03 05:33:33;;;;;;;1.90;0.20;;;;;;;;;;5093840;28;20467;-83
2023/08/03 05:35:59;;;;;;;1.30;0.30;;;;;;;;;;5093931;28;20417;-85
2023/08/03 05:38:25;;;;;;;2.00;0.87;;;;;;;;;;5093878;28;20415;-86
2023/08/03 05:40:51;;;;;;;3.63;0.30;;;;;;;;;;5092371;28;20506;-87
2023/08/03 05:43:17;;;;;;;2.33;0.23;;;;;;;;;;5092295;28;21018;-86
2023/08/03 05:45:44;;;;;;;2.43;0.20;;;;;;;;;;5093866;28;20168;-86
2023/08/03 05:48:14;;;;;;;1.63;0.30;;;;;;;;;;5093840;28;20531;-88
2023/08/03 05:50:41;;;;;;;0.73;0.20;;;;;;;;;;5093821;28;20471;-86
2023/08/03 05:53:09;;;;;;;2.20;0.20;;;;;;;;;;5093592;28;20499;-87
2023/08/03 05:55:35;;;;;;;3.43;0.30;;;;;;;;;;5092068;28;20417;-85
2023/08/03 05:58:01;;;;;;;14.77;2.47;;;;;;;;;;5093519;28;20439;-85
2023/08/03 06:00:28;;;;;;;1.43;0.30;;;;;;;;;;5093471;28;20950;-87
2023/08/03 06:02:56;;;;;;;4.23;0.30;;;;;;;;;;5092252;28;20510;-86
2023/08/03 06:05:42;;;;;;;1.90;0.47;;;;;;;;;;5091962;28;20417;-84
2023/08/03 06:08:28;;;;;;;1.30;0.30;;;;;;;;;;5093344;28;20418;-86
2023/08/03 06:10:58;;;;;;;1.10;0.10;;;;;;;;;;5092700;28;20564;-87
2023/08/03 06:13:28;;;;;;;1.73;0.23;;;;;;;;;;5093218;28;20418;-87
2023/08/03 06:15:54;;;;;;;1.13;0.20;;;;;;;;;;5093408;28;20406;-86
2023/08/03 06:18:21;;;;;;;1.33;0.30;;;;;;;;;;5093201;28;20887;-86
2023/08/03 06:20:48;;;;;;;1.77;0.20;;;;;;;;;;5092349;28;20501;-84
2023/08/03 06:23:20;;;;;;;1.80;0.60;;;;;;;;;;5091930;28;20413;-85
2023/08/03 06:25:46;;;;;;;1.90;0.20;;;;;;;;;;5092830;28;20409;-86
2023/08/03 06:28:14;;;;;;;1.90;0.20;;;;;;;;;;5091746;28;20424;-85
2023/08/03 06:30:40;;;;;;;0.77;0.20;;;;;;;;;;5093025;28;20468;-85
2023/08/03 06:33:09;;;;;;;2.00;0.30;;;;;;;;;;5093046;28;20411;-85
2023/08/03 06:35:39;;;;;;;0.50;0.20;;;;;;;;;;5093062;28;20447;-84
2023/08/03 06:38:05;;;;;;;0.93;0.20;;;;;;;;;;5093012;28;20462;-86
2023/08/03 06:40:31;;;;;;;0.77;0.20;;;;;;;;;;5092637;28;20917;-86
2023/08/03 06:42:58;;;;;;;0.60;0.10;;;;;;;;;;5092227;28;21001;-85
2023/08/03 06:45:23;;;;;;;0.80;0.20;;;;;;;;;;5097197;28;20407;-84
2023/08/03 06:47:50;;;;;;;0.73;0.20;;;;;;;;;;5097183;28;20920;-84
2023/08/03 06:50:16;;;;;;;0.87;0.20;;;;;;;;;;5097106;28;20786;-86
2023/08/03 06:52:42;;;;;;;0.50;0.20;;;;;;;;;;5097151;28;20409;-87
2023/08/03 06:55:08;;;;;;;1.13;0.20;;;;;;;;;;5096652;28;20410;-85
2023/08/03 06:57:34;;;;;;;0.83;0.20;;;;;;;;;;5096941;28;20735;-86
2023/08/03 07:00:00;;;;;;;0.40;0.20;;;;;;;;;;5096938;28;20171;-87
2023/08/03 07:02:26;;;;;;;0.90;0.20;;;;;;;;;;5096950;28;20402;-84
2023/08/03 07:04:52;;;;;;;1.33;0.30;;;;;;;;;;5096846;28;20503;-86
2023/08/03 07:07:18;;;;;;;0.77;0.20;;;;;;;;;;5096862;28;20187;-86
2023/08/03 07:09:51;;;;;;;0.53;0.20;;;;;;;;;;5096461;28;20402;-86
2023/08/03 07:12:16;;;;;;;0.53;0.20;;;;;;;;;;5096768;28;20205;-87
2023/08/03 07:14:42;;;;;;;0.30;0.20;;;;;;;;;;5096511;28;20895;-85
2023/08/03 07:17:08;;;;;;;0.30;0.20;;;;;;;;;;5096588;28;20175;-86
2023/08/03 07:19:34;;;;;;;0.40;0.20;;;;;;;;;;5096503;28;20509;-87
2023/08/03 07:22:00;;;;;;;0.40;0.20;;;;;;;;;;5096495;28;20580;-86
2023/08/03 07:24:29;;;;;;;0.43;0.20;;;;;;;;;;5094899;28;20414;-87
2023/08/03 07:26:55;;;;;;;1.70;0.20;;;;;;;;;;5096380;28;20426;-86
2023/08/03 07:29:21;;;;;;;1.30;0.20;;;;;;;;;;5096357;28;20949;-86
2023/08/03 07:31:50;;;;;;;0.43;0.30;;;;;;;;;;5096288;28;20462;-86
2023/08/03 07:34:16;;;;;;;2.03;0.10;;;;;;;;;;5096276;28;20176;-85
2023/08/03 07:36:42;;;;;;;0.93;0.20;;;;;;;;;;5096303;28;20453;-82
2023/08/03 07:39:07;;;;;;;0.60;0.20;;;;;;;;;;5095905;28;20568;-85
2023/08/03 07:41:34;;;;;;;1.57;0.20;;;;;;;;;;5096163;28;20402;-86
2023/08/03 07:44:00;;;;;;;1.67;0.20;;;;;;;;;;5096050;28;20308;-85
2023/08/03 07:46:26;;;;;;;0.70;0.20;;;;;;;;;;5096208;28;20459;-84
2023/08/03 07:48:51;;;;;;;0.63;0.20;;;;;;;;;;5096129;28;20471;-86
2023/08/03 07:51:17;;;;;;;0.83;0.20;;;;;;;;;;5095974;28;20302;-83
2023/08/03 07:53:44;;;;;;;0.60;0.20;;;;;;;;;;5095697;28;20171;-85
2023/08/03 07:56:16;;;;;;;0.60;0.20;;;;;;;;;;5093556;28;20418;-84
2023/08/03 07:58:42;;;;;;;0.50;0.20;;;;;;;;;;5095955;28;20414;-84
2023/08/03 08:01:08;;;;;;;1.10;0.20;;;;;;;;;;5095930;28;20414;-87
2023/08/03 08:03:34;;;;;;;0.93;0.40;;;;;;;;;;5095903;28;20401;-85
2023/08/03 08:06:10;;;;;;;1.70;0.43;;;;;;;;;;5095683;28;20423;-84
2023/08/03 08:08:37;;;;;;;3.20;0.43;;;;;;;;;;5095660;28;20401;-84
2023/08/03 08:11:03;;;;;;;1.77;0.30;;;;;;;;;;5095804;28;20560;-84
2023/08/03 08:13:29;;;;;;;2.90;0.40;;;;;;;;;;5096684;28;20435;-95
2023/08/03 08:16:02;;;;;;;3.10;0.67;;;;;;;;;;5103606;28;20435;-90
2023/08/03 08:18:28;;;;;;;3.10;0.40;;;;;;;;;;5096169;28;20417;-86
2023/08/03 08:20:57;;;;;;;1.80;0.50;;;;;;;;;;5095517;28;20845;-85
2023/08/03 08:23:23;;;;;;;1.83;0.67;;;;;;;;;;5095106;28;20425;-85
2023/08/03 08:25:49;;;;;;;1.60;0.37;;;;;;;;;;5095417;28;20469;-85
2023/08/03 08:28:15;;;;;;;2.80;0.30;;;;;;;;;;5094000;28;20425;-84
2023/08/03 08:30:41;;;;;;;1.87;0.47;;;;;;;;;;5095249;28;20571;-87
2023/08/03 08:33:07;;;;;;;1.17;0.20;;;;;;;;;;5095311;28;20218;-84
2023/08/03 08:35:33;;;;;;;1.43;0.60;;;;;;;;;;5095168;28;20421;-83
2023/08/03 08:37:59;;;;;;;4.20;0.50;;;;;;;;;;5095163;28;20177;-85
2023/08/03 08:40:27;;;;;;;1.27;0.40;;;;;;;;;;5094723;28;20779;-84
2023/08/03 08:42:53;;;;;;;2.80;0.40;;;;;;;;;;5087429;28;20577;-87
2023/08/03 08:45:20;;;;;;;0.43;0.20;;;;;;;;;;5091443;28;20422;-88
2023/08/03 08:47:46;;;;;;;0.93;0.30;;;;;;;;;;5093843;28;20420;-88
2023/08/03 08:50:12;;;;;;;1.30;0.30;;;;;;;;;;5093353;28;20426;-89
2023/08/03 08:52:42;;;;;;;2.27;0.50;;;;;;;;;;5094708;28;20475;-85
2023/08/03 08:55:12;;;;;;;0.40;0.20;;;;;;;;;;5094426;28;20441;-86
2023/08/03 08:57:39;;;;;;;1.13;0.43;;;;;;;;;;5094742;28;20420;-83
2023/08/03 09:00:06;;;;;;;1.80;0.30;;;;;;;;;;5094919;28;20534;-88
2023/08/03 09:02:32;;;;;;;1.63;0.30;;;;;;;;;;5093618;28;20430;-90
2023/08/03 09:04:58;;;;;;;2.67;1.03;;;;;;;;;;5079860;28;20411;-87
2023/08/03 09:07:24;;;;;;;1.63;0.27;;;;;;;;;;5072885;28;20781;-85
2023/08/03 09:09:50;;;;;;;2.33;0.50;;;;;;;;;;5074081;28;20414;-86
2023/08/03 09:12:28;;;;;;;2.07;0.77;;;;;;;;;;5085492;28;20218;-90
2023/08/03 09:15:00;;;;;;;3.90;0.70;;;;;;;;;;5104057;28;20440;-87
2023/08/03 09:17:26;;;;;;;1.50;0.40;;;;;;;;;;5102688;28;20465;-88
2023/08/03 09:19:53;;;;;;;3.20;0.70;;;;;;;;;;5097466;28;20418;-88
2023/08/03 09:22:20;;;;;;;4.40;0.80;;;;;;;;;;5099953;28;20812;-85
2023/08/03 09:24:47;;;;;;;1.97;0.57;;;;;;;;;;5093395;28;20784;-84
2023/08/03 09:27:19;;;;;;;4.20;0.60;;;;;;;;;;5092358;28;20954;-86
2023/08/03 09:29:45;;;;;;;1.13;0.30;;;;;;;;;;5093226;28;20788;-86
2023/08/03 09:32:12;;;;;;;1.43;1.07;;;;;;;;;;5093676;28;20473;-85
2023/08/03 09:34:39;;;;;;;2.60;0.53;;;;;;;;;;5091255;28;20505;-86
2023/08/03 09:37:06;;;;;;;5.00;0.60;;;;;;;;;;5081317;28;21083;-78
2023/08/03 09:39:34;;;;;;;3.83;0.43;;;;;;;;;;5087566;28;20430;-80
2023/08/03 09:42:05;;;;;;;1.10;0.40;;;;;;;;;;5088419;28;20421;-79
2023/08/03 09:44:33;;;;;;;2.43;0.50;;;;;;;;;;5092590;28;20779;-79
2023/08/03 09:47:00;;;;;;;1.67;0.43;;;;;;;;;;5091285;28;20410;-79
2023/08/03 09:49:26;;;;;;;0.80;0.30;;;;;;;;;;5091840;28;20768;-79
2023/08/03 09:51:53;;;;;;;1.23;0.33;;;;;;;;;;5093338;28;20477;-80
2023/08/03 09:54:25;;;;;;;2.00;0.30;;;;;;;;;;5093041;28;20183;-79
2023/08/03 09:56:57;;;;;;;3.17;0.60;;;;;;;;;;5092785;28;20458;-81
2023/08/03 09:59:25;;;;;;;2.20;0.30;;;;;;;;;;5092966;28;20437;-83
2023/08/03 10:01:53;;;;;;;4.70;0.80;;;;;;;;;;5093596;28;20923;-82
2023/08/03 10:04:20;;;;;;;1.63;0.30;;;;;;;;;;5093509;28;20827;-82
2023/08/03 10:06:48;;;;;;;2.30;0.50;;;;;;;;;;5091885;28;20488;-83
2023/08/03 10:09:17;;;;;;;2.50;0.60;;;;;;;;;;5093030;28;20413;-80
2023/08/03 10:11:43;;;;;;;5.30;1.40;;;;;;;;;;5092707;28;21007;-80
2023/08/03 10:14:09;;;;;;;3.40;1.03;;;;;;;;;;5092403;28;20437;-82
2023/08/03 10:16:36;;;;;;;1.80;0.50;;;;;;;;;;5093362;28;20423;-82
2023/08/03 10:19:03;;;;;;;4.50;1.03;;;;;;;;;;5091242;28;20929;-82
2023/08/03 10:21:29;;;;;;;0.90;0.30;;;;;;;;;;5093208;28;20423;-81
2023/08/03 10:24:14;;;;;;;3.30;0.80;;;;;;;;;;5091594;28;20420;-81
2023/08/03 10:26:41;;;;;;;2.53;0.90;;;;;;;;;;5093262;28;20754;-81
2023/08/03 10:29:07;;;;;;;4.90;1.53;;;;;;;;;;5093090;28;20414;-83
2023/08/03 10:31:33;;;;;;;3.93;1.20;;;;;;;;;;5093062;28;20489;-80
2023/08/03 10:33:59;;;;;;;4.03;1.30;;;;;;;;;;5093163;28;20409;-81
2023/08/03 10:36:28;;;;;;;2.70;0.53;;;;;;;;;;5093088;28;20406;-82
2023/08/03 10:38:54;;;;;;;2.03;1.10;;;;;;;;;;5092746;28;20168;-81
2023/08/03 10:41:23;;;;;;;2.77;0.70;;;;;;;;;;5093081;28;20406;-81
2023/08/03 10:44:13;;;;;;;1.30;0.37;;;;;;;;;;5092905;28;20478;-81
2023/08/03 10:46:50;;;;;;;1.20;0.53;;;;;;;;;;5093015;28;20413;-81
2023/08/03 10:49:18;;;;;;;1.87;0.60;;;;;;;;;;5093028;28;20887;-82
2023/08/03 10:51:45;;;;;;;3.50;0.87;;;;;;;;;;5091602;28;20477;-82
2023/08/03 10:54:10;;;;;;;2.03;0.93;;;;;;;;;;5091296;28;20413;-83
2023/08/03 10:56:37;;;;;;;2.97;0.80;;;;;;;;;;5092938;28;20403;-82
2023/08/03 10:59:03;;;;;;;1.40;0.70;;;;;;;;;;5092847;28;20417;-82
2023/08/03 11:01:29;;;;;;;1.53;0.90;;;;;;;;;;5092898;28;20443;-82
2023/08/03 11:03:55;;;;;;;2.30;0.77;;;;;;;;;;5092893;28;20405;-81
2023/08/03 11:06:22;;;;;;;1.47;0.63;;;;;;;;;;5092858;28;20514;-82
2023/08/03 11:08:48;;;;;;;2.43;0.97;;;;;;;;;;5092433;28;20890;-81
2023/08/03 11:11:22;;;;;;;2.23;0.63;;;;;;;;;;5092797;28;20934;-80
2023/08/03 11:13:48;;;;;;;2.40;0.73;;;;;;;;;;5092918;28;20421;-81
2023/08/03 11:16:15;;;;;;;1.23;0.57;;;;;;;;;;5092719;28;20754;-81
2023/08/03 11:18:48;;;;;;;1.27;0.50;;;;;;;;;;5091504;28;20422;-80
2023/08/03 11:21:14;;;;;;;2.10;0.37;;;;;;;;;;5092654;28;20459;-81
2023/08/03 11:23:40;;;;;;;1.27;0.67;;;;;;;;;;5092302;28;20472;-80
2023/08/03 11:26:08;;;;;;;1.37;0.20;;;;;;;;;;5092707;28;20495;-80
2023/08/03 11:28:39;;;;;;;1.03;0.40;;;;;;;;;;5092705;28;20409;-80
2023/08/03 11:31:14;;;;;;;1.50;0.60;;;;;;;;;;5096356;28;20474;-80
2023/08/03 11:33:41;;;;;;;2.07;0.87;;;;;;;;;;5096383;28;20415;-80
2023/08/03 11:36:07;;;;;;;0.63;0.30;;;;;;;;;;5096328;28;20406;-80
2023/08/03 11:38:33;;;;;;;1.80;0.20;;;;;;;;;;5095909;28;20421;-80
2023/08/03 11:40:59;;;;;;;0.60;0.20;;;;;;;;;;5096216;28;20452;-80
2023/08/03 11:43:25;;;;;;;1.87;0.40;;;;;;;;;;5095981;28;20216;-80
2023/08/03 11:45:55;;;;;;;1.67;0.33;;;;;;;;;;5096259;28;20545;-80
2023/08/03 11:48:24;;;;;;;1.03;0.20;;;;;;;;;;5096078;28;20259;-80
2023/08/03 11:50:50;;;;;;;1.70;0.50;;;;;;;;;;5095835;28;20466;-81
2023/08/03 11:53:25;;;;;;;0.60;0.20;;;;;;;;;;5095631;28;20471;-79
2023/08/03 11:55:51;;;;;;;1.00;0.27;;;;;;;;;;5095891;28;20260;-80
2023/08/03 11:58:22;;;;;;;1.27;0.20;;;;;;;;;;5095909;28;20505;-79
2023/08/03 12:00:48;;;;;;;1.60;0.20;;;;;;;;;;5095892;28;20402;-80
2023/08/03 12:03:32;;;;;;;0.87;0.20;;;;;;;;;;5095669;28;20418;-79
2023/08/03 12:06:11;;;;;;;1.47;0.30;;;;;;;;;;5095734;28;20464;-79
2023/08/03 12:08:41;;;;;;;0.87;0.20;;;;;;;;;;5095246;28;20464;-79
2023/08/03 12:11:07;;;;;;;1.17;0.30;;;;;;;;;;5095564;28;20470;-83
2023/08/03 12:13:33;;;;;;;1.30;0.23;;;;;;;;;;5094252;28;20475;-82
2023/08/03 12:15:59;;;;;;;0.80;0.20;;;;;;;;;;5095538;28;20970;-82
2023/08/03 12:18:25;;;;;;;0.70;0.20;;;;;;;;;;5095412;28;20217;-80
2023/08/03 12:20:51;;;;;;;0.50;0.20;;;;;;;;;;5095440;28;20915;-82
2023/08/03 12:23:18;;;;;;;0.63;0.20;;;;;;;;;;5095020;28;20448;-82
2023/08/03 12:25:44;;;;;;;0.43;0.20;;;;;;;;;;5095347;28;20418;-81
2023/08/03 12:28:10;;;;;;;1.30;0.20;;;;;;;;;;5095305;28;20403;-80
2023/08/03 12:30:36;;;;;;;1.07;0.20;;;;;;;;;;5095124;28;20463;-81
2023/08/03 12:33:02;;;;;;;0.80;0.20;;;;;;;;;;5095183;28;20422;-82
2023/08/03 12:35:28;;;;;;;0.70;0.20;;;;;;;;;;5095175;28;20176;-81
2023/08/03 12:37:54;;;;;;;0.60;0.20;;;;;;;;;;5094727;28;20820;-81
2023/08/03 12:40:20;;;;;;;1.30;0.23;;;;;;;;;;5094536;28;20415;-80
2023/08/03 12:42:46;;;;;;;1.30;0.20;;;;;;;;;;5094614;28;20618;-81
2023/08/03 12:45:11;;;;;;;1.23;0.20;;;;;;;;;;5095031;28;20445;-80
2023/08/03 12:47:37;;;;;;;0.87;0.20;;;;;;;;;;5094904;28;20172;-80
2023/08/03 12:50:04;;;;;;;1.60;0.20;;;;;;;;;;5094822;28;20192;-81
2023/08/03 12:52:30;;;;;;;0.90;0.20;;;;;;;;;;5093210;28;20646;-80
2023/08/03 12:54:56;;;;;;;0.50;0.20;;;;;;;;;;5095020;28;20417;-80
2023/08/03 12:57:22;;;;;;;0.73;0.20;;;;;;;;;;5094652;28;20414;-79
2023/08/03 12:59:48;;;;;;;0.83;0.20;;;;;;;;;;5094692;28;20902;-79
2023/08/03 13:02:14;;;;;;;1.03;0.20;;;;;;;;;;5094630;28;20411;-79
2023/08/03 13:04:40;;;;;;;1.50;0.20;;;;;;;;;;5094574;28;20408;-80
2023/08/03 13:07:06;;;;;;;2.63;0.30;;;;;;;;;;5094521;28;20500;-80
2023/08/03 13:09:32;;;;;;;0.67;0.20;;;;;;;;;;5094128;28;20419;-80
2023/08/03 13:11:58;;;;;;;0.40;0.20;;;;;;;;;;5094348;28;20478;-78
2023/08/03 13:14:24;;;;;;;1.33;0.20;;;;;;;;;;5094413;28;20575;-80
2023/08/03 13:16:50;;;;;;;1.17;0.20;;;;;;;;;;5094411;28;20418;-79
2023/08/03 13:19:16;;;;;;;2.00;0.23;;;;;;;;;;5094279;28;20903;-78
2023/08/03 13:21:42;;;;;;;0.73;0.20;;;;;;;;;;5094256;28;20415;-79
2023/08/03 13:24:08;;;;;;;1.57;0.20;;;;;;;;;;5093881;28;20399;-79
2023/08/03 13:26:34;;;;;;;1.53;0.20;;;;;;;;;;5094199;28;20445;-79
2023/08/03 13:29:00;;;;;;;0.50;0.20;;;;;;;;;;5094149;28;20251;-79
2023/08/03 13:31:26;;;;;;;0.83;0.20;;;;;;;;;;5093993;28;20612;-78
2023/08/03 13:33:52;;;;;;;3.20;0.30;;;;;;;;;;5093979;28;20417;-79
2023/08/03 13:36:18;;;;;;;2.10;0.77;;;;;;;;;;5093998;28;20214;-79
2023/08/03 13:38:44;;;;;;;3.03;0.30;;;;;;;;;;5093617;28;20402;-79
2023/08/03 13:41:09;;;;;;;0.60;0.27;;;;;;;;;;5092636;28;20640;-79
2023/08/03 13:43:37;;;;;;;1.23;0.20;;;;;;;;;;5093657;28;20464;-79
2023/08/03 13:46:03;;;;;;;1.23;0.20;;;;;;;;;;5094041;28;20233;-79
2023/08/03 13:48:29;;;;;;;1.90;0.30;;;;;;;;;;5092647;28;20915;-80
2023/08/03 13:50:56;;;;;;;2.53;0.20;;;;;;;;;;5093709;28;20245;-79
2023/08/03 13:53:25;;;;;;;4.63;0.60;;;;;;;;;;5093274;28;20633;-80
2023/08/03 13:55:51;;;;;;;1.77;0.20;;;;;;;;;;5093641;28;20410;-79
2023/08/03 13:58:17;;;;;;;1.13;0.20;;;;;;;;;;5093593;28;20407;-79
2023/08/03 14:00:43;;;;;;;0.50;0.20;;;;;;;;;;5093586;28;20180;-79
2023/08/03 14:03:09;;;;;;;0.67;0.20;;;;;;;;;;5093627;28;20752;-79
2023/08/03 14:05:35;;;;;;;1.47;0.30;;;;;;;;;;5091088;28;20430;-79
2023/08/03 14:08:01;;;;;;;2.00;0.30;;;;;;;;;;5082502;28;20188;-79
2023/08/03 14:10:27;;;;;;;1.87;0.43;;;;;;;;;;5073809;28;20208;-79
2023/08/03 14:12:53;;;;;;;4.20;0.40;;;;;;;;;;5081734;28;20631;-79
2023/08/03 14:15:19;;;;;;;1.27;0.20;;;;;;;;;;5092929;28;20406;-79
2023/08/03 14:17:45;;;;;;;2.13;0.40;;;;;;;;;;5093115;28;20438;-79
2023/08/03 14:20:11;;;;;;;2.40;0.40;;;;;;;;;;5093226;28;20434;-79
2023/08/03 14:22:37;;;;;;;0.93;0.20;;;;;;;;;;5092639;28;20172;-79
2023/08/03 14:25:03;;;;;;;1.57;0.30;;;;;;;;;;5093014;28;20406;-80
2023/08/03 14:27:29;;;;;;;2.33;0.20;;;;;;;;;;5093231;28;20410;-79
2023/08/03 14:29:55;;;;;;;1.73;0.30;;;;;;;;;;5102438;28;20407;-79
2023/08/03 14:32:21;;;;;;;0.97;0.20;;;;;;;;;;5092221;28;20687;-79
2023/08/03 14:34:47;;;;;;;3.83;0.57;;;;;;;;;;5092748;28;20464;-79
2023/08/03 14:37:13;;;;;;;1.07;0.20;;;;;;;;;;5091929;28;20263;-78
2023/08/03 14:39:39;;;;;;;2.43;0.37;;;;;;;;;;5092855;28;20493;-78
2023/08/03 14:42:05;;;;;;;2.30;0.60;;;;;;;;;;5092480;28;20429;-79